Time;durP1;ratioP1;P1;durP2;ratioP2;P2;SDS_P1;SDS_P2;PMS_P1;PMS_P2;Temp;Humidity;BMP_temperature;BMP_pressure;BME280_temperature;BME280_humidity;BME280_pressure;Samples;Min_cycle;Max_cycle;Signal;HPM_P1;HPM_P2
2020/12/16 00:01:26;;;;;;;16.40;13.63;;;;;;;;;;5055079;28;20228;-60
2020/12/16 00:03:51;;;;;;;17.63;15.10;;;;;;;;;;5054593;28;20312;-61
2020/12/16 00:06:17;;;;;;;20.70;16.03;;;;;;;;;;5054975;28;20243;-60
2020/12/16 00:08:42;;;;;;;15.93;14.23;;;;;;;;;;5040459;28;20220;-60
2020/12/16 00:11:07;;;;;;;16.67;14.87;;;;;;;;;;5034538;28;20231;-60
2020/12/16 00:13:32;;;;;;;19.33;15.93;;;;;;;;;;5035030;28;20356;-60
2020/12/16 00:15:58;;;;;;;16.27;13.80;;;;;;;;;;5034781;28;20231;-60
2020/12/16 00:18:23;;;;;;;16.47;13.80;;;;;;;;;;5037126;28;20700;-60
2020/12/16 00:20:49;;;;;;;15.13;13.53;;;;;;;;;;5054664;28;20231;-60
2020/12/16 00:23:14;;;;;;;15.87;14.17;;;;;;;;;;5049609;28;20260;-60
2020/12/16 00:25:39;;;;;;;18.20;15.13;;;;;;;;;;5048386;28;20366;-60
2020/12/16 00:28:04;;;;;;;16.20;14.23;;;;;;;;;;5053773;28;20239;-60
2020/12/16 00:30:30;;;;;;;16.87;13.30;;;;;;;;;;5054698;28;20227;-61
2020/12/16 00:32:55;;;;;;;14.70;13.20;;;;;;;;;;5054145;28;20231;-60
2020/12/16 00:35:20;;;;;;;16.57;13.50;;;;;;;;;;5055049;28;20366;-59
2020/12/16 00:37:46;;;;;;;15.80;14.03;;;;;;;;;;5054721;28;20239;-59
2020/12/16 00:40:12;;;;;;;18.13;14.87;;;;;;;;;;5054104;28;20220;-59
2020/12/16 00:42:38;;;;;;;18.10;14.57;;;;;;;;;;5054772;28;20215;-60
2020/12/16 00:45:05;;;;;;;17.00;15.13;;;;;;;;;;5058039;28;20854;-60
2020/12/16 00:47:34;;;;;;;15.87;14.17;;;;;;;;;;5058848;28;20235;-60
2020/12/16 00:49:59;;;;;;;16.93;14.20;;;;;;;;;;5058063;28;20477;-60
2020/12/16 00:52:28;;;;;;;15.60;14.00;;;;;;;;;;5058668;28;20432;-59
2020/12/16 00:54:53;;;;;;;15.13;13.30;;;;;;;;;;5058572;28;20720;-60
2020/12/16 00:57:19;;;;;;;14.60;12.73;;;;;;;;;;5057971;28;20457;-60
2020/12/16 00:59:44;;;;;;;16.20;14.53;;;;;;;;;;5044952;28;20738;-60
2020/12/16 01:02:09;;;;;;;16.60;14.40;;;;;;;;;;5036825;28;20283;-60
2020/12/16 01:04:34;;;;;;;18.00;13.70;;;;;;;;;;5038099;28;20214;-60
2020/12/16 01:07:00;;;;;;;15.67;13.90;;;;;;;;;;5037821;28;20619;-60
2020/12/16 01:09:25;;;;;;;15.57;13.50;;;;;;;;;;5038561;28;20224;-59
2020/12/16 01:11:50;;;;;;;16.13;14.37;;;;;;;;;;5038528;28;20317;-59
2020/12/16 01:14:16;;;;;;;17.73;15.80;;;;;;;;;;5037745;28;20226;-59
2020/12/16 01:16:41;;;;;;;16.03;14.33;;;;;;;;;;5038772;28;20624;-59
2020/12/16 01:19:06;;;;;;;16.60;13.00;;;;;;;;;;5046379;28;20305;-59
2020/12/16 01:21:36;;;;;;;17.83;14.80;;;;;;;;;;5058022;28;20274;-59
2020/12/16 01:24:02;;;;;;;16.90;13.23;;;;;;;;;;5057599;28;20215;-59
2020/12/16 01:26:27;;;;;;;17.50;14.60;;;;;;;;;;5057734;28;20797;-60
2020/12/16 01:28:52;;;;;;;19.20;15.00;;;;;;;;;;5057827;28;20472;-60
2020/12/16 01:31:18;;;;;;;20.53;16.23;;;;;;;;;;5056183;28;20309;-60
2020/12/16 01:33:43;;;;;;;16.57;13.83;;;;;;;;;;5057939;28;20325;-60
2020/12/16 01:36:10;;;;;;;17.37;15.53;;;;;;;;;;5057137;28;20662;-60
2020/12/16 01:38:36;;;;;;;18.03;15.03;;;;;;;;;;5057608;28;20216;-60
2020/12/16 01:41:05;;;;;;;17.73;15.20;;;;;;;;;;5057026;28;20446;-60
2020/12/16 01:43:35;;;;;;;17.03;13.80;;;;;;;;;;5056311;28;20490;-60
2020/12/16 01:46:01;;;;;;;19.17;14.40;;;;;;;;;;5056989;28;20436;-60
2020/12/16 01:48:26;;;;;;;17.20;14.93;;;;;;;;;;5057279;28;20423;-60
2020/12/16 01:50:51;;;;;;;15.83;13.97;;;;;;;;;;5057506;28;20293;-60
2020/12/16 01:53:16;;;;;;;17.43;15.33;;;;;;;;;;5056909;28;20310;-60
2020/12/16 01:55:42;;;;;;;19.70;15.00;;;;;;;;;;5056722;28;20568;-59
2020/12/16 01:58:09;;;;;;;21.03;15.33;;;;;;;;;;5057246;28;20230;-60
2020/12/16 02:00:35;;;;;;;21.40;16.60;;;;;;;;;;5037183;28;20551;-60
2020/12/16 02:03:03;;;;;;;18.93;16.07;;;;;;;;;;5036536;28;20804;-60
2020/12/16 02:05:29;;;;;;;18.00;16.10;;;;;;;;;;5037558;28;20531;-60
2020/12/16 02:07:56;;;;;;;16.53;14.63;;;;;;;;;;5036360;28;20470;-60
2020/12/16 02:10:21;;;;;;;18.60;15.90;;;;;;;;;;5036667;28;20220;-60
2020/12/16 02:12:47;;;;;;;19.17;16.20;;;;;;;;;;5037326;28;20547;-60
2020/12/16 02:15:12;;;;;;;20.97;16.00;;;;;;;;;;5036798;28;20335;-60
2020/12/16 02:17:37;;;;;;;17.70;14.83;;;;;;;;;;5037022;28;20676;-60
2020/12/16 02:20:06;;;;;;;20.17;15.80;;;;;;;;;;5052112;28;20219;-60
2020/12/16 02:22:32;;;;;;;22.20;16.77;;;;;;;;;;5056951;28;20229;-59
2020/12/16 02:25:10;;;;;;;19.30;15.83;;;;;;;;;;5038445;28;20452;-60
2020/12/16 02:27:37;;;;;;;18.80;15.80;;;;;;;;;;5037546;28;20214;-60
2020/12/16 02:30:04;;;;;;;18.30;14.73;;;;;;;;;;5036623;28;20420;-60
2020/12/16 02:32:30;;;;;;;20.50;16.90;;;;;;;;;;5036203;28;20464;-60
2020/12/16 02:34:56;;;;;;;18.80;15.30;;;;;;;;;;5036997;28;20431;-60
2020/12/16 02:37:21;;;;;;;22.73;16.73;;;;;;;;;;5037235;28;20225;-60
2020/12/16 02:39:47;;;;;;;20.20;16.03;;;;;;;;;;5036697;28;20448;-60
2020/12/16 02:42:13;;;;;;;19.87;16.17;;;;;;;;;;5037229;28;20224;-60
2020/12/16 02:44:38;;;;;;;20.60;16.10;;;;;;;;;;5037275;28;20713;-60
2020/12/16 02:47:06;;;;;;;20.67;16.73;;;;;;;;;;5036590;28;20457;-60
2020/12/16 02:49:31;;;;;;;19.17;15.63;;;;;;;;;;5036124;28;20210;-59
2020/12/16 02:51:58;;;;;;;21.27;17.80;;;;;;;;;;5036401;28;20489;-59
2020/12/16 02:54:24;;;;;;;19.90;16.63;;;;;;;;;;5036712;28;20225;-59
2020/12/16 02:56:50;;;;;;;22.27;14.67;;;;;;;;;;5035640;28;20652;-60
2020/12/16 02:59:16;;;;;;;18.90;15.80;;;;;;;;;;5045264;28;20366;-60
2020/12/16 03:01:41;;;;;;;17.33;15.53;;;;;;;;;;5056297;28;20506;-60
2020/12/16 03:04:06;;;;;;;22.73;17.20;;;;;;;;;;5055912;28;20434;-60
2020/12/16 03:06:31;;;;;;;20.30;15.77;;;;;;;;;;5055775;28;20290;-60
2020/12/16 03:08:57;;;;;;;17.97;16.10;;;;;;;;;;5056061;28;20680;-60
2020/12/16 03:11:22;;;;;;;18.03;16.20;;;;;;;;;;5056173;28;20311;-60
2020/12/16 03:13:47;;;;;;;27.10;19.80;;;;;;;;;;5056140;28;20222;-60
2020/12/16 03:16:19;;;;;;;23.63;18.17;;;;;;;;;;5056681;28;20215;-60
2020/12/16 03:18:45;;;;;;;22.60;17.17;;;;;;;;;;5055617;28;20360;-60
2020/12/16 03:21:10;;;;;;;23.50;18.13;;;;;;;;;;5054960;28;20546;-60
2020/12/16 03:23:35;;;;;;;20.80;16.83;;;;;;;;;;5048609;28;20227;-60
2020/12/16 03:26:05;;;;;;;20.97;15.93;;;;;;;;;;5035519;28;20655;-60
2020/12/16 03:28:30;;;;;;;23.87;19.50;;;;;;;;;;5035981;28;20218;-60
2020/12/16 03:30:55;;;;;;;28.73;19.73;;;;;;;;;;5035591;28;20470;-60
2020/12/16 03:33:21;;;;;;;29.40;23.83;;;;;;;;;;5036469;28;20218;-60
2020/12/16 03:35:46;;;;;;;30.63;21.00;;;;;;;;;;5035775;28;20221;-60
2020/12/16 03:38:11;;;;;;;28.17;22.37;;;;;;;;;;5035992;28;20209;-60
2020/12/16 03:40:37;;;;;;;29.70;20.53;;;;;;;;;;5035715;28;20333;-60
2020/12/16 03:43:02;;;;;;;27.50;20.53;;;;;;;;;;5035165;28;20240;-60
2020/12/16 03:45:27;;;;;;;34.57;23.07;;;;;;;;;;5035478;28;20233;-59
2020/12/16 03:47:52;;;;;;;29.87;23.07;;;;;;;;;;5034787;28;20226;-59
2020/12/16 03:50:18;;;;;;;31.17;22.60;;;;;;;;;;5035611;28;20304;-59
2020/12/16 03:52:43;;;;;;;39.80;26.17;;;;;;;;;;5034354;28;20244;-59
2020/12/16 03:55:08;;;;;;;37.50;24.27;;;;;;;;;;5035347;28;20222;-59
2020/12/16 03:57:33;;;;;;;33.20;24.67;;;;;;;;;;5035441;28;20341;-59
2020/12/16 03:59:59;;;;;;;37.37;25.00;;;;;;;;;;5050076;28;20232;-61
2020/12/16 04:02:24;;;;;;;36.90;24.30;;;;;;;;;;5055571;28;20281;-60
2020/12/16 04:04:49;;;;;;;33.73;25.00;;;;;;;;;;5055077;28;20233;-60
2020/12/16 04:07:15;;;;;;;34.80;24.33;;;;;;;;;;5055319;28;20219;-60
2020/12/16 04:09:40;;;;;;;32.73;24.10;;;;;;;;;;5055559;28;20299;-60
2020/12/16 04:12:05;;;;;;;32.00;24.40;;;;;;;;;;5054896;28;20244;-60
2020/12/16 04:14:30;;;;;;;34.17;23.33;;;;;;;;;;5055384;28;20304;-60
2020/12/16 04:16:56;;;;;;;37.67;24.80;;;;;;;;;;5054592;28;20542;-59
2020/12/16 04:19:22;;;;;;;38.30;24.23;;;;;;;;;;5058875;28;20214;-59
2020/12/16 04:21:47;;;;;;;35.97;23.53;;;;;;;;;;5059058;28;20440;-61
2020/12/16 04:24:12;;;;;;;37.53;24.60;;;;;;;;;;5046960;28;20224;-60
2020/12/16 04:26:37;;;;;;;32.33;22.70;;;;;;;;;;5039253;28;20258;-60
2020/12/16 04:29:04;;;;;;;29.67;20.90;;;;;;;;;;5039036;28;20225;-61
2020/12/16 04:31:29;;;;;;;31.17;21.83;;;;;;;;;;5039361;28;20314;-61
2020/12/16 04:33:55;;;;;;;33.03;24.40;;;;;;;;;;5038763;28;21024;-60
2020/12/16 04:36:20;;;;;;;25.33;18.40;;;;;;;;;;5041000;28;20220;-61
2020/12/16 04:38:46;;;;;;;31.80;22.13;;;;;;;;;;5050232;28;20444;-60
2020/12/16 04:41:11;;;;;;;33.77;22.70;;;;;;;;;;5067651;28;20225;-61
2020/12/16 04:43:41;;;;;;;32.67;21.23;;;;;;;;;;5067448;28;20215;-61
2020/12/16 04:46:09;;;;;;;30.10;20.97;;;;;;;;;;5071482;28;20316;-60
2020/12/16 04:48:34;;;;;;;30.43;19.43;;;;;;;;;;5069944;28;20943;-60
2020/12/16 04:51:00;;;;;;;28.23;20.27;;;;;;;;;;5064907;28;20447;-60
2020/12/16 04:53:25;;;;;;;31.67;23.20;;;;;;;;;;5066486;28;20245;-60
2020/12/16 04:55:51;;;;;;;31.23;20.27;;;;;;;;;;5054617;28;20581;-60
2020/12/16 04:58:16;;;;;;;28.73;22.77;;;;;;;;;;5070650;28;20649;-59
2020/12/16 05:00:42;;;;;;;33.17;22.50;;;;;;;;;;5072594;28;20611;-61
2020/12/16 05:03:09;;;;;;;30.80;22.67;;;;;;;;;;5070386;28;20610;-59
2020/12/16 05:05:35;;;;;;;30.43;21.47;;;;;;;;;;5065188;28;20228;-60
2020/12/16 05:08:14;;;;;;;30.13;21.67;;;;;;;;;;5065733;28;20525;-60
2020/12/16 05:10:43;;;;;;;28.37;18.90;;;;;;;;;;5056008;28;20244;-60
2020/12/16 05:13:09;;;;;;;28.20;20.77;;;;;;;;;;5064212;28;20447;-61
2020/12/16 05:15:35;;;;;;;27.70;20.60;;;;;;;;;;5069314;28;20434;-62
2020/12/16 05:18:08;;;;;;;28.90;20.70;;;;;;;;;;5069825;28;20492;-61
2020/12/16 05:20:35;;;;;;;26.50;20.30;;;;;;;;;;5054437;28;20513;-61
2020/12/16 05:23:02;;;;;;;27.97;20.13;;;;;;;;;;5062809;28;20589;-61
2020/12/16 05:25:27;;;;;;;27.80;19.57;;;;;;;;;;5068318;28;20913;-63
2020/12/16 05:27:53;;;;;;;25.43;20.27;;;;;;;;;;5070262;28;20473;-61
2020/12/16 05:30:18;;;;;;;25.10;19.30;;;;;;;;;;5064679;28;20563;-61
2020/12/16 05:32:43;;;;;;;28.23;18.87;;;;;;;;;;5063213;28;20595;-61
2020/12/16 05:35:26;;;;;;;26.60;18.77;;;;;;;;;;5068373;28;20229;-61
2020/12/16 05:37:59;;;;;;;29.27;18.67;;;;;;;;;;5059826;28;20232;-61
2020/12/16 05:40:24;;;;;;;27.00;18.60;;;;;;;;;;5066334;28;20433;-61
2020/12/16 05:42:50;;;;;;;25.60;18.70;;;;;;;;;;5069921;28;20429;-61
2020/12/16 05:45:20;;;;;;;27.67;20.47;;;;;;;;;;5064559;28;20220;-61
2020/12/16 05:48:00;;;;;;;23.50;18.73;;;;;;;;;;5063498;28;20552;-62
2020/12/16 05:50:35;;;;;;;25.73;19.37;;;;;;;;;;5064325;28;20458;-61
2020/12/16 05:53:15;;;;;;;24.57;19.10;;;;;;;;;;5070355;28;20530;-61
2020/12/16 05:55:40;;;;;;;26.40;19.20;;;;;;;;;;5070268;28;20447;-61
2020/12/16 05:58:11;;;;;;;27.83;19.87;;;;;;;;;;5064153;28;20427;-61
2020/12/16 06:00:53;;;;;;;30.20;21.77;;;;;;;;;;5064670;28;20254;-62
2020/12/16 06:03:36;;;;;;;30.00;20.77;;;;;;;;;;5067355;28;20468;-62
2020/12/16 06:06:10;;;;;;;33.63;21.50;;;;;;;;;;5062754;28;20470;-61
2020/12/16 06:08:38;;;;;;;32.90;23.20;;;;;;;;;;5062791;28;20457;-61
2020/12/16 06:11:05;;;;;;;27.43;21.13;;;;;;;;;;5075293;28;20563;-62
2020/12/16 06:13:30;;;;;;;29.80;21.50;;;;;;;;;;5062440;28;20494;-61
2020/12/16 06:16:02;;;;;;;30.70;21.07;;;;;;;;;;5068886;28;20460;-61
2020/12/16 06:18:38;;;;;;;30.90;20.50;;;;;;;;;;5069701;28;20227;-61
2020/12/16 06:21:05;;;;;;;28.70;19.00;;;;;;;;;;5066079;28;20465;-61
2020/12/16 06:23:41;;;;;;;26.23;18.70;;;;;;;;;;5068314;28;20761;-61
2020/12/16 06:26:14;;;;;;;29.33;19.77;;;;;;;;;;5065014;28;20543;-60
2020/12/16 06:28:44;;;;;;;26.70;20.20;;;;;;;;;;5068897;28;20540;-61
2020/12/16 06:31:28;;;;;;;31.67;19.60;;;;;;;;;;5068180;28;20579;-62
2020/12/16 06:33:58;;;;;;;30.40;20.20;;;;;;;;;;5051511;28;20473;-61
2020/12/16 06:36:28;;;;;;;28.50;19.90;;;;;;;;;;5059593;28;20871;-61
2020/12/16 06:38:54;;;;;;;25.90;19.13;;;;;;;;;;5064623;28;20467;-61
2020/12/16 06:41:22;;;;;;;29.70;21.20;;;;;;;;;;5060607;28;20914;-62
2020/12/16 06:43:48;;;;;;;27.00;19.07;;;;;;;;;;5066520;28;20228;-61
2020/12/16 06:46:28;;;;;;;32.90;20.10;;;;;;;;;;5068333;28;20460;-61
2020/12/16 06:48:53;;;;;;;29.43;20.50;;;;;;;;;;5066094;28;20481;-61
2020/12/16 06:51:24;;;;;;;28.47;19.50;;;;;;;;;;5061097;28;20875;-61
2020/12/16 06:54:02;;;;;;;31.93;23.50;;;;;;;;;;5064084;28;20226;-62
2020/12/16 06:56:28;;;;;;;29.37;20.80;;;;;;;;;;5068302;28;20434;-61
2020/12/16 06:58:53;;;;;;;25.30;18.90;;;;;;;;;;5061493;28;20464;-62
2020/12/16 07:01:18;;;;;;;22.20;16.43;;;;;;;;;;5067635;28;20963;-61
2020/12/16 07:03:44;;;;;;;23.00;17.30;;;;;;;;;;5067116;28;20284;-61
2020/12/16 07:06:32;;;;;;;23.00;17.17;;;;;;;;;;5061165;28;20381;-62
2020/12/16 07:09:13;;;;;;;25.47;18.90;;;;;;;;;;5061194;28;20659;-61
2020/12/16 07:11:56;;;;;;;26.30;18.47;;;;;;;;;;5063686;28;20467;-61
2020/12/16 07:14:24;;;;;;;24.90;16.97;;;;;;;;;;5068009;28;20485;-62
2020/12/16 07:16:49;;;;;;;24.60;17.87;;;;;;;;;;5067016;28;20484;-62
2020/12/16 07:19:17;;;;;;;23.40;16.20;;;;;;;;;;5060961;28;20519;-61
2020/12/16 07:21:43;;;;;;;24.67;17.00;;;;;;;;;;5061357;28;20251;-61
2020/12/16 07:24:11;;;;;;;19.70;15.53;;;;;;;;;;5067747;28;20468;-61
2020/12/16 07:26:46;;;;;;;23.43;17.27;;;;;;;;;;5060605;28;20535;-61
2020/12/16 07:29:20;;;;;;;24.63;17.50;;;;;;;;;;5050032;28;20501;-61
2020/12/16 07:31:58;;;;;;;24.70;18.60;;;;;;;;;;5060048;28;21380;-61
2020/12/16 07:34:25;;;;;;;24.60;17.90;;;;;;;;;;5063649;28;20467;-61
2020/12/16 07:36:55;;;;;;;21.37;17.03;;;;;;;;;;5065855;28;20479;-61
2020/12/16 07:39:20;;;;;;;20.60;16.60;;;;;;;;;;5058721;28;20448;-62
2020/12/16 07:41:45;;;;;;;24.50;16.70;;;;;;;;;;5060071;28;20441;-62
2020/12/16 07:44:11;;;;;;;25.03;17.60;;;;;;;;;;5061687;28;20220;-62
2020/12/16 07:46:37;;;;;;;18.20;16.03;;;;;;;;;;5066952;28;20562;-61
2020/12/16 07:49:02;;;;;;;19.97;15.77;;;;;;;;;;5065872;28;20470;-61
2020/12/16 07:51:27;;;;;;;23.47;16.97;;;;;;;;;;5059636;28;20240;-61
2020/12/16 07:53:53;;;;;;;22.77;19.40;;;;;;;;;;5062048;28;20585;-61
2020/12/16 07:56:20;;;;;;;23.00;16.73;;;;;;;;;;5067442;28;20360;-61
2020/12/16 07:58:45;;;;;;;22.70;17.37;;;;;;;;;;5059187;28;20241;-61
2020/12/16 08:01:12;;;;;;;19.27;16.87;;;;;;;;;;5067265;28;20624;-61
2020/12/16 08:03:39;;;;;;;25.30;19.30;;;;;;;;;;5064671;28;20251;-62
2020/12/16 08:06:05;;;;;;;24.53;18.60;;;;;;;;;;5053899;28;20506;-62
2020/12/16 08:08:30;;;;;;;27.00;18.67;;;;;;;;;;5057900;28;20555;-61
2020/12/16 08:10:56;;;;;;;25.40;20.23;;;;;;;;;;5055307;28;20531;-61
2020/12/16 08:13:23;;;;;;;24.87;17.37;;;;;;;;;;5065117;28;20242;-61
2020/12/16 08:15:48;;;;;;;19.53;16.87;;;;;;;;;;5060552;28;20304;-62
2020/12/16 08:18:20;;;;;;;19.13;15.53;;;;;;;;;;5063208;28;20533;-62
2020/12/16 08:20:46;;;;;;;23.23;16.77;;;;;;;;;;5067409;28;20668;-62
2020/12/16 08:23:13;;;;;;;19.90;15.47;;;;;;;;;;5060717;28;20466;-62
2020/12/16 08:25:39;;;;;;;20.63;15.17;;;;;;;;;;5067025;28;20222;-62
2020/12/16 08:28:07;;;;;;;24.73;17.83;;;;;;;;;;5064888;28;20450;-60
2020/12/16 08:30:33;;;;;;;21.77;15.17;;;;;;;;;;5057889;28;20457;-61
2020/12/16 08:33:07;;;;;;;23.47;16.07;;;;;;;;;;5060064;28;20473;-63
2020/12/16 08:35:43;;;;;;;21.90;16.10;;;;;;;;;;5057670;28;20432;-62
2020/12/16 08:38:09;;;;;;;20.57;15.77;;;;;;;;;;5058475;28;20485;-61
2020/12/16 08:40:46;;;;;;;20.53;17.10;;;;;;;;;;5063962;28;20495;-62
2020/12/16 08:43:24;;;;;;;21.53;16.27;;;;;;;;;;5066904;28;20439;-62
2020/12/16 08:46:03;;;;;;;23.73;17.53;;;;;;;;;;5064765;28;20465;-62
2020/12/16 08:48:39;;;;;;;24.37;16.90;;;;;;;;;;5048297;28;20469;-62
2020/12/16 08:51:06;;;;;;;21.63;16.10;;;;;;;;;;5059289;28;20461;-62
2020/12/16 08:53:45;;;;;;;21.70;16.33;;;;;;;;;;5064666;28;21059;-62
2020/12/16 08:56:31;;;;;;;19.63;14.90;;;;;;;;;;5066493;28;20799;-62
2020/12/16 08:59:05;;;;;;;20.67;15.27;;;;;;;;;;5064291;28;20904;-62
2020/12/16 09:01:31;;;;;;;19.30;15.73;;;;;;;;;;5059356;28;20471;-62
2020/12/16 09:03:56;;;;;;;21.03;16.40;;;;;;;;;;5060350;28;20467;-62
2020/12/16 09:06:21;;;;;;;16.80;13.90;;;;;;;;;;5070133;28;20474;-62
2020/12/16 09:08:47;;;;;;;19.67;15.30;;;;;;;;;;5069095;28;20315;-62
2020/12/16 09:11:13;;;;;;;17.20;15.03;;;;;;;;;;5061689;28;20228;-62
2020/12/16 09:13:38;;;;;;;17.50;12.90;;;;;;;;;;5064187;28;20479;-61
2020/12/16 09:16:03;;;;;;;17.00;12.00;;;;;;;;;;5069452;28;20221;-61
2020/12/16 09:18:30;;;;;;;14.13;11.70;;;;;;;;;;5065375;28;20223;-61
2020/12/16 09:20:56;;;;;;;9.37;7.93;;;;;;;;;;5069516;28;20559;-62
2020/12/16 09:23:27;;;;;;;11.50;7.80;;;;;;;;;;5063248;28;20464;-64
2020/12/16 09:25:55;;;;;;;9.30;6.80;;;;;;;;;;5069102;28;20459;-62
2020/12/16 09:28:20;;;;;;;10.37;7.90;;;;;;;;;;5069454;28;20455;-62
2020/12/16 09:30:46;;;;;;;8.67;7.77;;;;;;;;;;5062659;28;20882;-62
2020/12/16 09:33:14;;;;;;;11.03;9.17;;;;;;;;;;5062362;28;20229;-62
2020/12/16 09:35:39;;;;;;;10.03;8.20;;;;;;;;;;5049740;28;20649;-62
2020/12/16 09:38:12;;;;;;;9.40;8.47;;;;;;;;;;5062324;28;20621;-61
2020/12/16 09:40:38;;;;;;;7.90;6.20;;;;;;;;;;5066294;28;20229;-62
2020/12/16 09:43:04;;;;;;;6.73;6.10;;;;;;;;;;5068907;28;20444;-62
2020/12/16 09:45:31;;;;;;;6.27;5.63;;;;;;;;;;5065815;28;20217;-62
2020/12/16 09:47:56;;;;;;;6.20;5.60;;;;;;;;;;5061826;28;20471;-61
2020/12/16 09:50:26;;;;;;;12.93;6.40;;;;;;;;;;5066402;28;20499;-62
2020/12/16 09:52:59;;;;;;;7.10;6.30;;;;;;;;;;5069160;28;20221;-62
2020/12/16 09:55:27;;;;;;;7.63;6.30;;;;;;;;;;5066690;28;20476;-62
2020/12/16 09:58:03;;;;;;;5.63;5.00;;;;;;;;;;5061277;28;20463;-63
2020/12/16 10:00:29;;;;;;;5.23;4.30;;;;;;;;;;5063573;28;20442;-62
2020/12/16 10:02:59;;;;;;;5.60;4.60;;;;;;;;;;5068421;28;20525;-62
2020/12/16 10:05:24;;;;;;;7.50;5.03;;;;;;;;;;5068038;28;20241;-61
2020/12/16 10:07:50;;;;;;;5.10;4.60;;;;;;;;;;5061933;28;20502;-62
2020/12/16 10:10:15;;;;;;;7.27;5.67;;;;;;;;;;5062056;28;20227;-62
2020/12/16 10:12:40;;;;;;;9.93;8.47;;;;;;;;;;5069108;28;20228;-62
2020/12/16 10:15:05;;;;;;;9.37;8.40;;;;;;;;;;5066814;28;20307;-62
2020/12/16 10:17:31;;;;;;;7.60;6.50;;;;;;;;;;5061135;28;20281;-62
2020/12/16 10:19:56;;;;;;;8.57;7.50;;;;;;;;;;5072216;28;20289;-61
2020/12/16 10:22:21;;;;;;;8.10;7.30;;;;;;;;;;5061570;28;20294;-62
2020/12/16 10:24:47;;;;;;;7.43;6.73;;;;;;;;;;5070158;28;20248;-63
2020/12/16 10:27:12;;;;;;;9.60;7.53;;;;;;;;;;5061456;28;20606;-62
2020/12/16 10:29:37;;;;;;;11.60;9.37;;;;;;;;;;5063133;28;20213;-63
2020/12/16 10:32:03;;;;;;;9.97;7.90;;;;;;;;;;5067793;28;20229;-61
2020/12/16 10:34:28;;;;;;;9.23;8.07;;;;;;;;;;5066696;28;20548;-61
2020/12/16 10:36:54;;;;;;;9.10;8.17;;;;;;;;;;5056256;28;20221;-63
2020/12/16 10:39:20;;;;;;;9.07;7.90;;;;;;;;;;5067087;28;20251;-61
2020/12/16 10:41:53;;;;;;;10.93;8.90;;;;;;;;;;5061234;28;20220;-63
2020/12/16 10:44:19;;;;;;;9.77;8.77;;;;;;;;;;5061318;28;20448;-62
2020/12/16 10:46:45;;;;;;;14.40;10.50;;;;;;;;;;5068018;28;20487;-62
2020/12/16 10:49:11;;;;;;;13.63;11.03;;;;;;;;;;5067200;28;20510;-62
2020/12/16 10:51:36;;;;;;;16.23;12.53;;;;;;;;;;5060948;28;20462;-62
2020/12/16 10:54:01;;;;;;;11.30;10.10;;;;;;;;;;5061642;28;20266;-62
2020/12/16 10:56:27;;;;;;;13.67;12.07;;;;;;;;;;5068016;28;20230;-62
2020/12/16 10:58:52;;;;;;;14.03;11.33;;;;;;;;;;5066617;28;20303;-64
2020/12/16 11:01:17;;;;;;;16.03;12.67;;;;;;;;;;5060347;28;20651;-62
2020/12/16 11:03:42;;;;;;;17.17;12.67;;;;;;;;;;5062452;28;20295;-63
2020/12/16 11:06:09;;;;;;;18.47;14.80;;;;;;;;;;5067149;28;20623;-62
2020/12/16 11:08:34;;;;;;;18.97;14.87;;;;;;;;;;5066318;28;20295;-62
2020/12/16 11:10:59;;;;;;;16.03;13.80;;;;;;;;;;5060077;28;20838;-61
2020/12/16 11:13:25;;;;;;;19.03;14.67;;;;;;;;;;5062808;28;20283;-62
2020/12/16 11:15:50;;;;;;;18.47;13.37;;;;;;;;;;5067481;28;20232;-62
2020/12/16 11:18:15;;;;;;;16.90;13.57;;;;;;;;;;5063440;28;20486;-62
2020/12/16 11:20:40;;;;;;;18.90;14.50;;;;;;;;;;5067287;28;20224;-62
2020/12/16 11:23:06;;;;;;;13.70;12.20;;;;;;;;;;5061466;28;20355;-62
2020/12/16 11:25:31;;;;;;;15.97;12.97;;;;;;;;;;5067639;28;20550;-62
2020/12/16 11:27:56;;;;;;;15.03;12.33;;;;;;;;;;5064560;28;20568;-63
2020/12/16 11:30:21;;;;;;;14.10;11.20;;;;;;;;;;5060521;28;20234;-61
2020/12/16 11:32:47;;;;;;;12.20;10.47;;;;;;;;;;5063093;28;20619;-62
2020/12/16 11:35:12;;;;;;;15.63;12.77;;;;;;;;;;5066893;28;20226;-62
2020/12/16 11:37:42;;;;;;;14.53;12.87;;;;;;;;;;5053820;28;20594;-62
2020/12/16 11:40:07;;;;;;;14.30;12.17;;;;;;;;;;5067087;28;20222;-62
2020/12/16 11:42:33;;;;;;;12.77;11.37;;;;;;;;;;5065821;28;20466;-62
2020/12/16 11:44:58;;;;;;;16.80;11.50;;;;;;;;;;5059888;28;20381;-61
2020/12/16 11:47:23;;;;;;;14.83;11.50;;;;;;;;;;5061647;28;20544;-62
2020/12/16 11:49:48;;;;;;;11.07;9.90;;;;;;;;;;5067096;28;20323;-62
2020/12/16 11:52:14;;;;;;;13.23;11.00;;;;;;;;;;5065306;28;20247;-62
2020/12/16 11:54:39;;;;;;;10.80;9.70;;;;;;;;;;5060009;28;20259;-62
2020/12/16 11:57:04;;;;;;;14.57;13.10;;;;;;;;;;5061391;28;20234;-62
2020/12/16 11:59:30;;;;;;;16.50;12.93;;;;;;;;;;5066891;28;20304;-62
2020/12/16 12:01:56;;;;;;;16.07;13.07;;;;;;;;;;5065421;28;20243;-62
2020/12/16 12:04:22;;;;;;;20.43;14.57;;;;;;;;;;5059649;28;20221;-62
2020/12/16 12:06:48;;;;;;;21.33;15.80;;;;;;;;;;5060562;28;20952;-62
2020/12/16 12:09:13;;;;;;;18.87;15.67;;;;;;;;;;5066273;28;20221;-62
2020/12/16 12:11:39;;;;;;;18.37;15.90;;;;;;;;;;5064948;28;20466;-62
2020/12/16 12:14:04;;;;;;;18.00;14.10;;;;;;;;;;5059575;28;20610;-63
2020/12/16 12:16:29;;;;;;;18.93;14.67;;;;;;;;;;5061320;28;20556;-62
2020/12/16 12:18:55;;;;;;;17.17;14.73;;;;;;;;;;5069317;28;20222;-61
2020/12/16 12:21:20;;;;;;;16.97;13.63;;;;;;;;;;5061384;28;20303;-61
2020/12/16 12:23:45;;;;;;;18.10;15.13;;;;;;;;;;5067052;28;20228;-61
2020/12/16 12:26:11;;;;;;;19.73;16.53;;;;;;;;;;5061764;28;20560;-63
2020/12/16 12:28:36;;;;;;;20.70;15.47;;;;;;;;;;5066495;28;20252;-62
2020/12/16 12:31:02;;;;;;;19.53;15.20;;;;;;;;;;5063875;28;20297;-63
2020/12/16 12:33:27;;;;;;;17.43;15.53;;;;;;;;;;5059693;28;20553;-62
2020/12/16 12:35:52;;;;;;;18.53;15.23;;;;;;;;;;5062252;28;20312;-62
2020/12/16 12:38:18;;;;;;;21.83;15.97;;;;;;;;;;5056580;28;20656;-63
2020/12/16 12:40:44;;;;;;;17.90;15.53;;;;;;;;;;5066502;28;20756;-62
2020/12/16 12:43:09;;;;;;;21.90;16.17;;;;;;;;;;5069738;28;20223;-62
2020/12/16 12:45:34;;;;;;;18.40;14.23;;;;;;;;;;5067235;28;20458;-63
2020/12/16 12:48:00;;;;;;;16.10;12.77;;;;;;;;;;5063632;28;20303;-62
2020/12/16 12:50:25;;;;;;;18.47;15.27;;;;;;;;;;5065980;28;20675;-62
2020/12/16 12:52:50;;;;;;;20.70;15.73;;;;;;;;;;5070135;28;20236;-63
2020/12/16 12:55:16;;;;;;;19.60;15.10;;;;;;;;;;5066589;28;20223;-64
2020/12/16 12:57:42;;;;;;;25.37;15.20;;;;;;;;;;5063013;28;20224;-62
2020/12/16 13:00:11;;;;;;;22.70;16.20;;;;;;;;;;5066610;28;20216;-63
2020/12/16 13:02:37;;;;;;;20.83;15.83;;;;;;;;;;5070052;28;20583;-63
2020/12/16 13:05:04;;;;;;;24.73;16.83;;;;;;;;;;5066653;28;20472;-62
2020/12/16 13:07:29;;;;;;;20.53;16.53;;;;;;;;;;5063146;28;20228;-63
2020/12/16 13:09:54;;;;;;;20.10;15.50;;;;;;;;;;5066112;28;20445;-63
2020/12/16 13:12:19;;;;;;;23.10;15.83;;;;;;;;;;5069135;28;20407;-62
2020/12/16 13:14:45;;;;;;;17.23;14.23;;;;;;;;;;5066327;28;20552;-63
2020/12/16 13:17:10;;;;;;;18.83;14.63;;;;;;;;;;5062479;28;20295;-62
2020/12/16 13:19:35;;;;;;;18.33;15.70;;;;;;;;;;5074216;28;20223;-62
2020/12/16 13:22:01;;;;;;;20.47;15.13;;;;;;;;;;5062837;28;20314;-62
2020/12/16 13:24:26;;;;;;;17.70;14.53;;;;;;;;;;5071634;28;20285;-63
2020/12/16 13:26:52;;;;;;;19.67;15.33;;;;;;;;;;5062608;28;20459;-61
2020/12/16 13:29:18;;;;;;;15.00;12.83;;;;;;;;;;5059502;28;20224;-62
2020/12/16 13:31:50;;;;;;;16.17;12.70;;;;;;;;;;5069533;28;20237;-63
2020/12/16 13:34:18;;;;;;;18.60;15.43;;;;;;;;;;5055610;28;20495;-62
2020/12/16 13:36:44;;;;;;;17.10;13.67;;;;;;;;;;5066684;28;20866;-63
2020/12/16 13:39:09;;;;;;;18.47;16.17;;;;;;;;;;5065682;28;20532;-63
2020/12/16 13:41:35;;;;;;;20.30;16.37;;;;;;;;;;5062650;28;21000;-63
2020/12/16 13:44:00;;;;;;;16.67;14.57;;;;;;;;;;5065313;28;20218;-64
2020/12/16 13:46:25;;;;;;;18.20;14.03;;;;;;;;;;5059700;28;20681;-64
2020/12/16 13:48:51;;;;;;;18.33;14.30;;;;;;;;;;5065020;28;20228;-65
2020/12/16 13:51:26;;;;;;;22.13;15.57;;;;;;;;;;5068335;28;20229;-64
2020/12/16 13:53:52;;;;;;;17.70;13.13;;;;;;;;;;5061452;28;20264;-62
2020/12/16 13:56:18;;;;;;;16.63;13.97;;;;;;;;;;5054756;28;20456;-63
2020/12/16 13:58:44;;;;;;;18.80;13.90;;;;;;;;;;5055388;28;20222;-63
2020/12/16 14:01:09;;;;;;;18.57;13.17;;;;;;;;;;5059446;28;20470;-64
2020/12/16 14:03:34;;;;;;;17.57;13.90;;;;;;;;;;5069219;28;20279;-62
2020/12/16 14:06:00;;;;;;;17.47;14.00;;;;;;;;;;5062216;28;20216;-62
2020/12/16 14:08:25;;;;;;;16.10;12.87;;;;;;;;;;5063525;28;20311;-63
2020/12/16 14:10:50;;;;;;;21.40;15.33;;;;;;;;;;5068510;28;20233;-63
2020/12/16 14:13:16;;;;;;;19.10;14.10;;;;;;;;;;5065632;28;20558;-63
2020/12/16 14:15:41;;;;;;;18.07;13.90;;;;;;;;;;5061674;28;20309;-62
2020/12/16 14:18:06;;;;;;;17.73;13.50;;;;;;;;;;5063352;28;20237;-62